Flight Track Log - Related Links

Times and Time Zones

All times are in EDT time to prevent confusion due to time zone crossing. See the AAL1459 flight status page for this flight to view local times or setup timezone preferences in your user account.

Time Position Orientation Groundspeed Altitude Reporting Facility
EDT Latitude Longitude Course Direction KTS MPH feet Rate Location/Type
Mon 07:19:51 PM 41.9167 -87.9500 261° West 207 238 3,000  Level Chicago TRACON
Mon 07:21:00 PM 41.9286 -88.3572 255° West  Level FlightAware Approximate
Mon 07:21:38 PM 41.8789 -88.0822 249° West 249 287 8,400  Level Chicago Center
Mon 07:22:00 PM 41.9116 -88.5103 261° West  Level FlightAware Approximate
Mon 07:22:40 PM 41.8694 -88.1792 263° West 262 302 11,900  Level Chicago Center
Mon 07:23:00 PM 41.8935 -88.6640 261° West  Level FlightAware Approximate
Mon 07:23:42 PM 41.8597 -88.2931 263° West 301 346 13,600  Level Chicago Center
Mon 07:24:00 PM 41.8756 -88.8178 261° West  Level FlightAware Approximate
Mon 07:24:44 PM 41.8525 -88.4206 266° West 343 395 16,600  Level Chicago Center
Mon 07:25:00 PM 41.8575 -88.9758 261° West  Level FlightAware Approximate
Mon 07:25:46 PM 41.8461 -88.5519 266° West 355 409 19,100  Level Chicago Center
Mon 07:26:48 PM 41.8389 -88.7172 267° West 370 426 21,900 2,274 Climbing Chicago Center
Mon 07:27:50 PM 41.8308 -88.8622 266° West 390 449 23,800 1,790 Climbing Chicago Center
Mon 07:28:52 PM 41.8244 -89.0072 267° West 393 452 25,600 1,548 Climbing Chicago Center
Mon 07:29:54 PM 41.8136 -89.1561 264° West 403 464 27,000 1,161 Climbing Chicago Center
Mon 07:30:56 PM 41.7964 -89.3125 262° West 424 488 28,000 774 Climbing Chicago Center
Mon 07:31:58 PM 41.7764 -89.5028 262° West 434 499 28,600 871 Climbing Chicago Center
Mon 07:33:00 PM 41.7608 -89.6417 262° West 435 501 29,800 1,161 Climbing Chicago Center
Mon 07:34:02 PM 41.7400 -89.8347 262° West 438 504 31,000 1,161 Climbing Chicago Center
Mon 07:35:04 PM 41.7203 -90.0011 261° West 452 520 32,200 1,016 Climbing Chicago Center
Mon 07:36:06 PM 41.7008 -90.1661 261° West 453 521 33,100 1,016 Climbing Chicago Center
Mon 07:37:08 PM 41.6806 -90.3358 261° West 464 534 34,300 1,113 Climbing Chicago Center
Mon 07:38:10 PM 41.6614 -90.5008 261° West 455 524 35,400 823 Climbing Chicago Center
Mon 07:39:12 PM 41.6403 -90.6692 261° West 446 513 36,000 290 Climbing Chicago Center
Mon 07:40:14 PM 41.6211 -90.8331 261° West 449 517 36,000  Level Chicago Center
Mon 07:41:16 PM 41.5958 -91.0303 260° West 450 518 36,000  Level Chicago Center
Mon 07:42:18 PM 41.5753 -91.1944 261° West 452 520 36,000  Level Chicago Center
Mon 07:43:20 PM 41.5547 -91.3575 260° West 449 517 36,000  Level Chicago Center
Mon 07:44:22 PM 41.5333 -91.5200 260° West 448 516 36,000  Level Chicago Center
Mon 07:45:24 PM 41.5128 -91.6825 260° West 448 516 36,000  Level Chicago Center
Mon 07:47:11 PM 41.4708 -91.9983 260° West 437 503 36,000  Level Minneapolis Center
Mon 07:47:28 PM 41.4656 -92.0394 260° West 446 513 36,000  Level Chicago Center
Mon 07:48:30 PM 41.4439 -92.2039 260° West 453 521 36,000  Level Chicago Center
Mon 07:49:32 PM 41.4200 -92.3653 259° West 451 519 36,000  Level Chicago Center
Mon 07:50:34 PM 41.4011 -92.5592 263° West 464 534 36,000  Level Chicago Center
Mon 07:51:30 PM 41.4092 -92.6875 275° West 446 513 36,000  Level Minneapolis Center
Mon 07:52:32 PM 41.4206 -92.8819 275° West 443 510 36,000  Level Minneapolis Center
Mon 07:53:34 PM 41.4306 -93.0444 275° West 445 512 36,000  Level Minneapolis Center
Mon 07:54:35 PM 41.4406 -93.2050 275° West 443 510 36,000  Level Minneapolis Center
Mon 07:55:37 PM 41.4494 -93.3675 274° West 444 511 36,000  Level Minneapolis Center
Mon 07:56:39 PM 41.4586 -93.5281 274° West 440 506 36,000  Level Minneapolis Center
Mon 07:57:40 PM 41.4708 -93.7242 275° West 443 510 36,000  Level Minneapolis Center
Mon 07:58:42 PM 41.4772 -93.8878 273° West 445 512 36,000  Level Minneapolis Center
Mon 07:59:44 PM 41.4886 -94.0461 276° West 443 510 36,000  Level Minneapolis Center
Mon 08:00:46 PM 41.4975 -94.2078 274° West 442 509 36,000  Level Minneapolis Center
Mon 08:01:47 PM 41.5039 -94.3753 273° West 442 509 36,000  Level Minneapolis Center
Mon 08:02:49 PM 41.5122 -94.5389 274° West 442 509 36,000  Level Minneapolis Center
Mon 08:03:51 PM 41.5203 -94.7028 274° West 444 511 36,000  Level Minneapolis Center
Mon 08:04:52 PM 41.5267 -94.8672 273° West 443 510 36,000  Level Minneapolis Center
Mon 08:05:54 PM 41.5364 -95.0633 274° West 442 509 36,000  Level Minneapolis Center
Mon 08:06:56 PM 41.5422 -95.2281 273° West 445 512 36,000  Level Minneapolis Center
Mon 08:07:57 PM 41.5506 -95.3922 274° West 445 512 36,000  Level Minneapolis Center
Mon 08:08:59 PM 41.5564 -95.5556 273° West 444 511 36,000  Level Minneapolis Center
Mon 08:10:01 PM 41.5619 -95.7239 273° West 448 516 36,000  Level Minneapolis Center
Mon 08:11:15 PM 41.5681 -95.8903 273° West 449 517 36,000  Level Minneapolis Center
Mon 08:12:17 PM 41.5756 -96.1244 273° West 452 520 36,000  Level Minneapolis Center
Mon 08:13:18 PM 41.5811 -96.2908 273° West 450 518 36,000  Level Minneapolis Center
Mon 08:14:20 PM 41.5872 -96.4458 273° West 451 519 36,000  Level Minneapolis Center
Mon 08:15:22 PM 41.5917 -96.6100 272° West 446 513 36,000  Level Minneapolis Center
Mon 08:16:24 PM 41.5956 -96.7744 272° West 445 512 36,000  Level Minneapolis Center
Mon 08:17:25 PM 41.6017 -96.9714 272° West 444 511 36,000  Level Minneapolis Center
Mon 08:18:27 PM 41.6067 -97.1353 272° West 443 510 36,000  Level Minneapolis Center
Mon 08:19:29 PM 41.6097 -97.2997 271° West 444 511 36,000  Level Minneapolis Center
Mon 08:20:31 PM 41.6136 -97.4628 272° West 442 509 36,000  Level Minneapolis Center
Mon 08:21:32 PM 41.6178 -97.6261 272° West 441 507 36,000  Level Minneapolis Center
Mon 08:22:34 PM 41.6203 -97.7908 271° West 442 509 36,000  Level Minneapolis Center
Mon 08:23:36 PM 41.6236 -97.9542 272° West 441 507 36,000  Level Minneapolis Center
Mon 08:24:38 PM 41.6281 -98.1300 272° West 440 506 36,000  Level Minneapolis Center
Mon 08:25:40 PM 41.6297 -98.2939 271° West 442 509 36,000  Level Minneapolis Center
Mon 08:26:41 PM 41.6322 -98.4939 271° West 449 517 36,000  Level Minneapolis Center
Mon 08:27:43 PM 41.6347 -98.6611 271° West 453 521 36,000  Level Minneapolis Center
Mon 08:28:45 PM 41.6364 -98.8278 271° West 453 521 36,000  Level Minneapolis Center
Mon 08:29:47 PM 41.6378 -98.9942 271° West 452 520 36,000 48 Level Minneapolis Center
Mon 08:30:49 PM 41.6394 -99.1606 271° West 451 519 36,100 370 Climbing Minneapolis Center
Mon 08:31:08 PM 41.6400 -99.2275 271° West 449 517 36,500 900 Climbing Denver Center
Mon 08:32:09 PM 41.6403 -99.3942 270° West 450 518 37,300 732 Climbing Denver Center
Mon 08:33:11 PM 41.6411 -99.5606 270° West 450 518 38,000 341 Climbing Denver Center
Mon 08:34:12 PM 41.6422 -99.7272 271° West 450 518 38,000  Level Denver Center
Mon 08:35:14 PM 41.6414 -99.9058 270° West 453 521 38,000  Level Denver Center
Mon 08:36:16 PM 41.6428 -100.0942 271° West 455 524 38,000  Level Denver Center
Mon 08:37:30 PM 41.6414 -100.3067 270° West 451 519 38,000  Level Denver Center
Mon 08:38:31 PM 41.6408 -100.4636 270° West 445 512 38,000  Level Denver Center
Mon 08:39:33 PM 41.6403 -100.6214 270° West 445 512 38,000  Level Denver Center
Mon 08:40:35 PM 41.6394 -100.8036 270° West 442 509 38,000  Level Denver Center
Mon 08:41:36 PM 41.6378 -100.9600 269° West 442 509 38,000  Level Denver Center
Mon 08:42:38 PM 41.6361 -101.1425 269° West 442 509 38,000  Level Denver Center
Mon 08:43:40 PM 41.6339 -101.2992 269° West 442 509 38,000  Level Denver Center
Mon 08:44:41 PM 41.6336 -101.4822 270° West 443 510 38,000  Level Denver Center
Mon 08:45:43 PM 41.6308 -101.6406 269° West 446 513 38,000  Level Denver Center
Mon 08:46:45 PM 41.6275 -101.8242 269° West 445 512 38,000  Level Denver Center
Mon 08:47:46 PM 41.6242 -101.9825 268° West 447 514 38,000  Level Denver Center
Mon 08:48:48 PM 41.6225 -102.1403 269° West 445 512 38,000  Level Denver Center
Mon 08:49:50 PM 41.6183 -102.3242 268° West 445 512 38,000  Level Denver Center
Mon 08:50:51 PM 41.6153 -102.4814 269° West 444 511 38,000  Level Denver Center
Mon 08:51:53 PM 41.6094 -102.6678 268° West 441 507 38,000  Level Denver Center
Mon 08:52:55 PM 41.6061 -102.8253 268° West 442 509 38,000  Level Denver Center
Mon 08:53:56 PM 41.6031 -102.9817 269° West 442 509 38,000  Level Denver Center
Mon 08:54:58 PM 41.5972 -103.1667 268° West 446 513 38,000  Level Denver Center
Mon 08:56:00 PM 41.5919 -103.3253 268° West 446 513 38,000  Level Denver Center
Mon 08:57:01 PM 41.5858 -103.5100 268° West 445 512 38,000  Level Denver Center
Mon 08:58:03 PM 41.5831 -103.6661 269° West 442 509 38,000  Level Denver Center
Mon 08:59:04 PM 41.5769 -103.8236 267° West 443 510 38,000  Level Denver Center
Mon 09:00:06 PM 41.5700 -104.0092 267° West 446 513 38,000  Level Denver Center
Mon 09:01:08 PM 41.5650 -104.1669 268° West 445 512 38,000  Level Denver Center
Mon 09:02:10 PM 41.5583 -104.3522 267° West 448 516 38,000  Level Denver Center
Mon 09:03:11 PM 41.5528 -104.5119 267° West 450 518 38,000  Level Denver Center
Mon 09:04:13 PM 41.5447 -104.6972 267° West 448 516 38,000  Level Denver Center
Mon 09:05:14 PM 41.5392 -104.8281 267° West 444 511 38,000  Level Denver Center
Mon 09:06:16 PM 41.5308 -105.0128 267° West 446 513 38,000  Level Denver Center
Mon 09:07:18 PM 41.5231 -105.1967 267° West 444 511 38,000  Level Denver Center
Mon 09:08:20 PM 41.5158 -105.3547 267° West 445 512 38,000  Level Denver Center
Mon 09:09:22 PM 41.5067 -105.5369 266° West 442 509 38,000  Level Denver Center
Mon 09:10:23 PM 41.4997 -105.6936 267° West 442 509 38,000  Level Denver Center
Mon 09:11:25 PM 41.4906 -105.8767 266° West 443 510 38,000  Level Denver Center
Mon 09:12:27 PM 41.4831 -106.0342 266° West 444 511 38,000  Level Denver Center
Mon 09:13:29 PM 41.4758 -106.1931 267° West 448 516 38,000  Level Denver Center
Mon 09:14:30 PM 41.4636 -106.3758 265° West 445 512 38,000  Level Denver Center
Mon 09:15:32 PM 41.4544 -106.5361 266° West 448 516 38,000  Level Denver Center
Mon 09:16:34 PM 41.4456 -106.7208 266° West 448 516 38,000  Level Denver Center
Mon 09:17:35 PM 41.4353 -106.8769 265° West 445 512 38,000  Level Denver Center
Mon 09:18:37 PM 41.4239 -107.0597 265° West 444 511 38,000  Level Denver Center
Mon 09:19:39 PM 41.4147 -107.2172 266° West 446 513 38,000  Level Denver Center
Mon 09:20:41 PM 41.4058 -107.3731 266° West 443 510 38,000  Level Denver Center
Mon 09:21:43 PM 41.3944 -107.5561 265° West 445 512 38,000  Level Denver Center
Mon 09:22:44 PM 41.3839 -107.7128 265° West 445 512 38,000  Level Denver Center
Mon 09:23:46 PM 41.3717 -107.8967 265° West 446 513 38,000  Level Denver Center
Mon 09:24:43 PM 41.3606 -108.0533 265° West 443 510 38,000  Level Salt Lake Center
Mon 09:25:50 PM 41.3475 -108.2333 265° West 439 505 38,000  Level Denver Center
Mon 09:26:51 PM 41.3367 -108.3897 265° West 442 509 38,000  Level Denver Center
Mon 09:27:53 PM 41.3253 -108.5442 264° West 440 506 38,000  Level Denver Center
Mon 09:28:48 PM 41.3133 -108.6994 264° West 438 504 38,000  Level Salt Lake Center
Mon 09:29:50 PM 41.2978 -108.8808 264° West 439 505 38,000  Level Salt Lake Center
Mon 09:30:51 PM 41.2844 -109.0383 264° West 441 507 38,000  Level Salt Lake Center
Mon 09:31:53 PM 41.2722 -109.1986 264° West 448 516 38,000  Level Salt Lake Center
Mon 09:32:54 PM 41.2581 -109.3836 264° West 446 513 38,000  Level Salt Lake Center
Mon 09:33:55 PM 41.2447 -109.5417 264° West 447 514 38,000  Level Salt Lake Center
Mon 09:34:57 PM 41.2322 -109.6986 264° West 446 513 38,000  Level Salt Lake Center
Mon 09:35:58 PM 41.2161 -109.8808 263° West 444 511 38,000  Level Salt Lake Center
Mon 09:37:00 PM 41.2022 -110.0367 263° West 444 511 38,000  Level Salt Lake Center
Mon 09:38:01 PM 41.1878 -110.2175 264° West 442 509 38,000  Level Salt Lake Center
Mon 09:39:03 PM 41.1725 -110.3722 263° West 442 509 38,000  Level Salt Lake Center
Mon 09:40:04 PM 41.1592 -110.5269 264° West 441 507 38,000  Level Salt Lake Center
Mon 09:41:05 PM 41.1428 -110.7069 263° West 441 507 38,000  Level Salt Lake Center
Mon 09:42:07 PM 41.1278 -110.8597 263° West 439 505 38,000  Level Salt Lake Center
Mon 09:43:08 PM 41.1111 -111.0328 263° West 439 505 38,000  Level Salt Lake Center
Mon 09:44:10 PM 41.0961 -111.1928 263° West 439 505 38,000  Level Salt Lake Center
Mon 09:45:11 PM 41.0806 -111.3519 263° West 438 504 38,000  Level Salt Lake Center
Mon 09:46:12 PM 41.0653 -111.5103 263° West 434 499 38,000  Level Salt Lake Center
Mon 09:47:14 PM 41.0492 -111.6669 262° West 431 496 38,000  Level Salt Lake Center
Mon 09:48:15 PM 41.0322 -111.8431 263° West 435 501 38,000  Level Salt Lake Center
Mon 09:49:17 PM 41.0142 -112.0000 261° West 438 504 38,000  Level Salt Lake Center
Mon 09:51:00 PM 40.9804 -112.2596 262° West  Level FlightAware Approximate
Mon 09:51:19 PM 40.9811 -112.3136 262° West 430 495 38,000  Level Salt Lake Center
Mon 09:52:21 PM 40.9639 -112.4703 262° West 432 497 38,000  Level Salt Lake Center
Mon 09:53:22 PM 40.9469 -112.6261 262° West 429 494 38,000  Level Salt Lake Center
Mon 09:54:24 PM 40.9258 -112.8128 262° West 429 494 38,000  Level Salt Lake Center
Mon 09:55:25 PM 40.9086 -112.9672 262° West 426 490 38,000  Level Salt Lake Center
Mon 09:56:27 PM 40.8911 -113.1222 262° West 427 491 38,000  Level Salt Lake Center
Mon 09:57:28 PM 40.8739 -113.2772 262° West 427 491 38,000  Level Salt Lake Center
Mon 09:58:29 PM 40.8553 -113.4303 261° West 425 489 38,000  Level Salt Lake Center
Mon 09:59:31 PM 40.8375 -113.5833 261° West 424 488 38,000  Level Salt Lake Center
Mon 10:00:33 PM 40.8192 -113.7361 261° West 422 486 38,000  Level Salt Lake Center
Mon 10:01:34 PM 40.7986 -113.8900 260° West 426 490 38,000  Level Salt Lake Center
Mon 10:02:36 PM 40.7772 -114.0736 261° West 423 487 38,000  Level Salt Lake Center
Mon 10:03:37 PM 40.7583 -114.2281 261° West 427 491 38,000  Level Salt Lake Center
Mon 10:04:39 PM 40.7392 -114.3808 261° West 424 488 38,000  Level Salt Lake Center
Mon 10:05:40 PM 40.7206 -114.5333 261° West 423 487 38,000  Level Salt Lake Center
Mon 10:06:42 PM 40.7011 -114.6869 261° West 425 489 38,000  Level Salt Lake Center
Mon 10:07:43 PM 40.6797 -114.8436 260° West 424 488 38,000  Level Salt Lake Center
Mon 10:08:45 PM 40.6597 -114.9872 260° West 419 482 38,000  Level Salt Lake Center
Mon 10:09:46 PM 40.6383 -115.1569 261° West 421 484 38,000  Level Salt Lake Center
Mon 10:10:48 PM 40.6156 -115.3017 258° West 421 484 38,000  Level Salt Lake Center
Mon 10:11:49 PM 40.5922 -115.4694 260° West 420 483 38,000  Level Salt Lake Center
Mon 10:12:51 PM 40.5731 -115.6153 260° West 422 486 38,000  Level Salt Lake Center
Mon 10:13:52 PM 40.5497 -115.7850 260° West 424 488 38,000  Level Salt Lake Center
Mon 10:14:54 PM 40.5292 -115.9303 260° West 422 486 38,000  Level Salt Lake Center
Mon 10:15:55 PM 40.5089 -116.0767 260° West 424 488 38,000  Level Salt Lake Center
Mon 10:16:57 PM 40.4853 -116.2447 260° West 421 484 38,000  Level Salt Lake Center
Mon 10:17:58 PM 40.4647 -116.3908 260° West 423 487 38,000  Level Salt Lake Center
Mon 10:19:00 PM 40.4400 -116.5569 259° West 417 480 38,000  Level Salt Lake Center
Mon 10:20:01 PM 40.4192 -116.6994 259° West 415 478 38,000  Level Salt Lake Center
Mon 10:21:03 PM 40.3953 -116.8572 259° West 419 482 38,000  Level Salt Lake Center
Mon 10:22:04 PM 40.3744 -116.9997 259° West 419 482 38,000  Level Salt Lake Center
Mon 10:23:06 PM 40.3494 -117.1667 259° West 419 482 38,000  Level Salt Lake Center
Mon 10:24:07 PM 40.3275 -117.3089 259° West 417 480 38,000  Level Salt Lake Center
Mon 10:25:09 PM 40.3014 -117.4736 258° West 414 476 38,000  Level Salt Lake Center
Mon 10:26:10 PM 40.2794 -117.6153 259° West 415 478 38,000  Level Salt Lake Center
Mon 10:27:12 PM 40.2578 -117.7575 259° West 418 481 38,000  Level Salt Lake Center
Mon 10:28:04 PM 40.2364 -117.8969 259° West 418 481 38,000 -584 Level Oakland Center
Mon 10:29:05 PM 40.2125 -118.0461 258° West 422 486 36,900 -2,066 Descending Oakland Center
Mon 10:30:06 PM 40.1886 -118.1928 258° West 417 480 33,800 -3,148 Descending Oakland Center
Mon 10:31:07 PM 40.1639 -118.3456 258° West 430 495 30,500 -2,852 Descending Oakland Center
Mon 10:32:08 PM 40.1394 -118.4961 258° West 426 490 28,000 -2,361 Descending Oakland Center
Mon 10:33:09 PM 40.1153 -118.6358 257° West 402 463 25,700 -2,262 Descending Oakland Center
Mon 10:34:10 PM 40.0894 -118.7700 256° West 386 444 23,400 -2,361 Descending Oakland Center
Mon 10:35:11 PM 40.0592 -118.9217 255° West 365 420 20,900 -2,311 Descending Oakland Center
Mon 10:36:12 PM 40.0350 -119.0500 256° West 365 420 18,700 -1,918 Descending Oakland Center
Mon 10:37:13 PM 40.0078 -119.1772 254° West 365 420 17,000 -1,820 Descending Oakland Center
Mon 10:38:14 PM 39.9839 -119.2989 256° West 352 405 15,000 -1,967 Descending Oakland Center
Mon 10:39:15 PM 39.9522 -119.4186 251° West 352 405 13,000 -1,623 Descending Oakland Center
Mon 10:40:16 PM 39.8992 -119.5169 235° Southwest 335 386 11,700 -1,180 Descending Oakland Center
Mon 10:41:17 PM 39.8494 -119.6067 234° Southwest 315 362 10,600 -885 Descending Oakland Center
Mon 10:42:18 PM 39.8089 -119.6878 237° Southwest 281 323 9,900 -689 Descending Oakland Center
Mon 10:43:19 PM 39.7661 -119.7478 227° Southwest 243 280 9,200 -829 Descending Oakland Center
Mon 10:44:21 PM 39.7039 -119.7569 186° South 240 276 8,200 -732 Descending Oakland Center
Mon 10:45:22 PM 39.6461 -119.7886 203° Southwest 226 260 7,700 -492 Descending Oakland Center

Login

Don't have an account? Register now (free) for customized features, flight alerts, and more!